Guarani d'Oeste, Brazil
Current Conditions -  °F | °C
As of 12:00 AM on Wednesday 26 Nov 2014 (Local Time) from SBAU Reporting Station
Drizzle Drizzle  
Wind Chill: 68°   Ceiling: 1800
Heat Index: 68°   Visibility: 6mi
Dew Point: 68°   Wind: 2mph
Humidity: 100%   Direction: 360°N
Pressure: 29.88"   Gusts: NA
Location:  20.07°S, 50.34°W
Report Text: SBAU 260200Z 36002KT 9999 -DZ SCT008 BKN018 BKN070 20/20 Q1012
Loading
Personal Weather Stations






























Interactive Weather Map New forecast layout! Learn more

10-Day Weather Forecast

Advertisements
Track Severe Weather on mobile